createdAt,value
2023-05-15T00:01:22.547Z,93.99
2023-05-15T00:03:52.287Z,94.42
2023-05-15T00:06:20.260Z,94.17
2023-05-15T00:08:47.634Z,94.13
2023-05-15T00:11:15.372Z,93.53
2023-05-15T00:13:42.687Z,93.62
2023-05-15T00:16:10.345Z,93.70
2023-05-15T00:18:37.781Z,93.59
2023-05-15T00:21:05.496Z,93.87
2023-05-15T00:23:32.737Z,93.86
2023-05-15T00:26:00.388Z,94.24
2023-05-15T00:28:27.742Z,94.55
2023-05-15T00:30:55.511Z,94.67
2023-05-15T00:33:22.933Z,94.36
2023-05-15T00:35:51.310Z,94.71
2023-05-15T00:38:18.604Z,94.80
2023-05-15T00:40:46.853Z,94.89
2023-05-15T00:43:16.201Z,94.99
2023-05-15T00:45:45.547Z,95.94
2023-05-15T00:48:14.017Z,95.83
2023-05-15T00:50:42.606Z,96.96
2023-05-15T00:53:11.239Z,95.80
2023-05-15T00:55:40.739Z,95.37
2023-05-15T00:58:11.009Z,95.35
2023-05-15T01:00:39.363Z,95.33
2023-05-15T01:03:07.063Z,96.55
2023-05-15T01:05:34.925Z,96.20
2023-05-15T01:08:39.975Z,95.59
2023-05-15T01:11:09.580Z,95.65
2023-05-15T01:13:36.948Z,96.38
2023-05-15T01:16:06.451Z,95.97
2023-05-15T01:18:33.956Z,96.13
2023-05-15T01:21:34.726Z,96.12
2023-05-15T01:24:23.428Z,96.24
2023-05-15T01:27:15.453Z,96.13
2023-05-15T01:29:59.891Z,96.40
2023-05-15T01:32:54.319Z,96.46
2023-05-15T01:35:41.512Z,96.53
2023-05-15T01:38:39.331Z,96.89
2023-05-15T01:41:35.171Z,97.18
2023-05-15T01:44:15.113Z,97.73
2023-05-15T01:46:51.293Z,97.93
2023-05-15T01:49:24.877Z,98.28
2023-05-15T01:52:14.824Z,98.15
2023-05-15T01:54:43.803Z,98.86
2023-05-15T01:57:13.755Z,98.53
2023-05-15T01:59:43.209Z,98.58
2023-05-15T02:02:12.152Z,99.36
2023-05-15T02:04:42.758Z,98.93
2023-05-15T02:07:11.151Z,99.21
2023-05-15T02:09:41.237Z,99.73
2023-05-15T02:12:10.755Z,99.42
2023-05-15T02:14:41.387Z,99.80
2023-05-15T02:17:09.244Z,99.61
2023-05-15T02:19:36.919Z,99.54
2023-05-15T02:22:04.408Z,99.37
2023-05-15T02:24:32.060Z,99.68
2023-05-15T02:27:12.199Z,100.00
2023-05-15T02:30:29.595Z,99.76
2023-05-15T02:33:36.072Z,100.00
2023-05-15T02:36:09.654Z,99.18
2023-05-15T02:38:49.107Z,99.17
2023-05-15T02:41:19.486Z,99.09
2023-05-15T02:43:50.936Z,98.96
2023-05-15T02:46:21.908Z,98.52
2023-05-15T02:48:50.766Z,98.64
2023-05-15T02:51:18.954Z,98.48
2023-05-15T02:53:46.431Z,98.51
2023-05-15T02:56:14.125Z,98.96
2023-05-15T02:58:42.507Z,98.87
2023-05-15T03:01:10.329Z,99.15
2023-05-15T03:03:37.680Z,99.22
2023-05-15T03:06:06.910Z,99.32
2023-05-15T03:08:34.254Z,99.52
2023-05-15T03:11:01.870Z,99.66
2023-05-15T03:13:29.227Z,100.00
2023-05-15T03:15:56.994Z,99.80
2023-05-15T03:18:24.662Z,100.00
2023-05-15T03:20:53.716Z,100.00
2023-05-15T03:23:21.084Z,100.00
2023-05-15T03:25:48.750Z,100.00
2023-05-15T03:28:16.145Z,100.00
2023-05-15T03:30:46.913Z,100.00
2023-05-15T03:33:14.260Z,100.00
2023-05-15T03:35:42.102Z,100.00
2023-05-15T03:38:09.568Z,100.00
2023-05-15T03:40:39.672Z,100.00
2023-05-15T03:43:07.232Z,100.00
2023-05-15T03:45:37.725Z,100.00
2023-05-15T03:48:05.808Z,100.00
2023-05-15T03:50:33.762Z,100.00
2023-05-15T03:53:01.156Z,100.00
2023-05-15T03:55:28.854Z,100.00
2023-05-15T03:57:58.069Z,100.00
2023-05-15T04:00:26.268Z,100.00
2023-05-15T04:02:54.268Z,100.00
2023-05-15T04:05:22.722Z,100.00
2023-05-15T04:07:50.513Z,100.00
2023-05-15T04:10:18.131Z,100.00
2023-05-15T04:12:46.401Z,100.00
2023-05-15T04:15:23.393Z,100.00
2023-05-15T04:17:53.887Z,100.00
2023-05-15T04:20:24.493Z,100.00
2023-05-15T04:22:53.016Z,100.00
2023-05-15T04:25:21.320Z,100.00
2023-05-15T04:27:49.439Z,100.00
2023-05-15T04:30:17.581Z,100.00
2023-05-15T04:32:44.976Z,100.00
2023-05-15T04:35:13.775Z,100.00
2023-05-15T04:37:43.273Z,99.74
2023-05-15T04:40:12.323Z,99.80
2023-05-15T04:42:39.860Z,99.98
2023-05-15T04:45:09.377Z,99.31
2023-05-15T04:47:37.298Z,99.00
2023-05-15T04:50:05.615Z,98.60
2023-05-15T04:52:33.419Z,98.51
2023-05-15T04:55:01.137Z,98.65
2023-05-15T04:57:28.782Z,97.98
2023-05-15T04:59:56.520Z,97.64
2023-05-15T05:02:24.613Z,96.98
2023-05-15T05:04:52.792Z,97.22
2023-05-15T05:07:20.132Z,96.94
2023-05-15T05:09:47.708Z,97.23
2023-05-15T05:12:15.071Z,97.06
2023-05-15T05:14:44.710Z,96.97
2023-05-15T05:17:12.245Z,96.59
2023-05-15T05:19:39.860Z,96.13
2023-05-15T05:22:07.848Z,96.16
2023-05-15T05:24:37.585Z,96.05
2023-05-15T05:27:05.836Z,96.22
2023-05-15T05:29:34.044Z,95.84
2023-05-15T05:32:01.474Z,95.66
2023-05-15T05:34:29.436Z,95.53
2023-05-15T05:36:56.862Z,95.33
2023-05-15T05:39:26.668Z,95.70
2023-05-15T05:41:53.960Z,95.17
2023-05-15T05:44:21.640Z,95.32
2023-05-15T05:46:49.752Z,95.32
2023-05-15T05:49:17.448Z,94.43
2023-05-15T05:51:47.159Z,94.81
2023-05-15T05:54:15.208Z,94.64
2023-05-15T05:56:43.124Z,94.81
2023-05-15T05:59:10.990Z,95.01
2023-05-15T06:01:38.505Z,94.93
2023-05-15T06:04:06.433Z,94.28
2023-05-15T06:06:34.686Z,94.02
2023-05-15T06:09:02.511Z,94.09
2023-05-15T06:11:29.816Z,94.18
2023-05-15T06:13:57.392Z,94.86
2023-05-15T06:16:24.766Z,93.87
2023-05-15T06:18:52.368Z,94.29
2023-05-15T06:21:19.754Z,94.76
2023-05-15T06:23:53.340Z,93.94
2023-05-15T06:26:22.054Z,94.36
2023-05-15T06:28:50.577Z,93.95
2023-05-15T06:31:18.036Z,93.56
2023-05-15T06:33:45.642Z,92.81
2023-05-15T06:36:12.975Z,91.74
2023-05-15T06:38:40.546Z,91.52
2023-05-15T06:41:07.920Z,90.32
2023-05-15T06:43:38.546Z,89.66
2023-05-15T06:46:06.176Z,90.44
2023-05-15T06:48:34.227Z,90.09
2023-05-15T06:51:01.777Z,89.63
2023-05-15T06:53:30.335Z,89.23
2023-05-15T06:55:57.876Z,89.74
2023-05-15T06:58:27.878Z,90.06
2023-05-15T07:00:57.673Z,90.22
2023-05-15T07:03:26.725Z,88.90
2023-05-15T07:05:54.307Z,89.09
2023-05-15T07:08:21.964Z,89.07
2023-05-15T07:10:49.590Z,89.55
2023-05-15T07:13:18.437Z,89.43
2023-05-15T07:15:46.081Z,88.90
2023-05-15T07:18:13.759Z,89.01
2023-05-15T07:20:41.170Z,88.98
2023-05-15T07:23:08.802Z,88.81
2023-05-15T07:25:36.528Z,88.62
2023-05-15T07:28:04.469Z,88.97
2023-05-15T07:30:31.817Z,86.57
2023-05-15T07:32:59.613Z,87.13
2023-05-15T07:35:27.318Z,87.72
2023-05-15T07:37:55.226Z,87.43
2023-05-15T07:40:24.324Z,87.42
2023-05-15T07:42:51.984Z,87.77
2023-05-15T07:45:19.466Z,87.66
2023-05-15T07:47:49.164Z,88.12
2023-05-15T07:50:19.794Z,88.32
2023-05-15T07:52:47.489Z,88.49
2023-05-15T07:55:14.886Z,87.08
2023-05-15T07:57:42.630Z,87.00
2023-05-15T08:00:13.723Z,86.85
2023-05-15T08:02:41.743Z,87.30
2023-05-15T08:05:09.774Z,86.42
2023-05-15T08:07:37.536Z,86.33
2023-05-15T08:10:07.477Z,86.70
2023-05-15T08:12:35.256Z,86.68
2023-05-15T08:15:02.748Z,86.85
2023-05-15T08:17:30.789Z,87.04
2023-05-15T08:19:58.174Z,87.17
2023-05-15T08:22:25.957Z,87.29
2023-05-15T08:24:53.340Z,87.03
2023-05-15T08:27:21.035Z,85.93
2023-05-15T08:29:48.448Z,86.21
2023-05-15T08:32:18.277Z,86.61
2023-05-15T08:34:45.832Z,86.58
2023-05-15T08:37:13.422Z,85.93
2023-05-15T08:39:40.714Z,85.05
2023-05-15T08:42:11.386Z,84.52
2023-05-15T08:44:39.567Z,84.58
2023-05-15T08:47:07.969Z,84.78
2023-05-15T08:50:06.943Z,84.05
2023-05-15T08:52:35.059Z,82.65
2023-05-15T08:55:03.962Z,85.18
2023-05-15T08:57:33.995Z,83.20
2023-05-15T09:00:06.520Z,83.37
2023-05-15T09:02:37.604Z,82.58
2023-05-15T09:05:07.421Z,81.83
2023-05-15T09:07:36.454Z,82.12
2023-05-15T09:10:04.796Z,80.83
2023-05-15T09:12:34.931Z,81.77
2023-05-15T09:15:22.577Z,86.35
2023-05-15T09:17:54.550Z,86.52
2023-05-15T09:20:34.000Z,87.27
2023-05-15T09:23:04.725Z,87.92
2023-05-15T09:25:44.948Z,86.73
2023-05-15T09:28:31.912Z,85.39
2023-05-15T09:31:03.001Z,86.11
2023-05-15T09:33:39.944Z,87.61
2023-05-15T09:36:09.495Z,87.81
2023-05-15T09:38:48.465Z,88.56
2023-05-15T09:41:25.049Z,90.39
2023-05-15T09:43:56.277Z,92.77
2023-05-15T09:46:24.260Z,89.79
2023-05-15T09:48:55.889Z,90.39
2023-05-15T09:51:23.461Z,90.80
2023-05-15T09:53:53.746Z,90.87
2023-05-15T09:56:22.130Z,89.96
2023-05-15T09:58:59.128Z,90.37
2023-05-15T10:01:27.648Z,88.56
2023-05-15T10:04:05.697Z,88.27
2023-05-15T10:06:43.338Z,87.85
2023-05-15T10:09:12.963Z,89.11
2023-05-15T10:11:43.740Z,82.70
2023-05-15T10:14:14.281Z,83.68
2023-05-15T10:16:42.130Z,84.37
2023-05-15T10:19:14.100Z,84.62
2023-05-15T10:21:42.411Z,84.14
2023-05-15T10:24:11.759Z,84.90
2023-05-15T10:26:41.771Z,86.02
2023-05-15T10:29:13.146Z,86.31
2023-05-15T10:31:42.139Z,87.87
2023-05-15T10:34:12.122Z,87.47
2023-05-15T10:36:43.106Z,90.19
2023-05-15T10:39:11.904Z,89.44
2023-05-15T10:41:40.742Z,88.91
2023-05-15T10:44:08.999Z,89.59
2023-05-15T10:46:37.724Z,91.91
2023-05-15T10:49:05.663Z,91.79
2023-05-15T10:51:33.636Z,92.14
2023-05-15T10:54:05.287Z,90.87
2023-05-15T10:56:39.206Z,89.11
2023-05-15T10:59:10.656Z,89.60
2023-05-15T11:01:40.148Z,87.78
2023-05-15T11:04:16.191Z,89.20
2023-05-15T11:06:49.057Z,85.27
2023-05-15T11:09:23.299Z,84.23
2023-05-15T11:12:09.543Z,81.86
2023-05-15T11:14:43.515Z,83.83
2023-05-15T11:17:17.680Z,81.39
2023-05-15T11:19:51.374Z,79.18
2023-05-15T11:22:23.085Z,77.08
2023-05-15T11:25:09.343Z,80.18
2023-05-15T11:27:46.620Z,79.06
2023-05-15T11:30:22.968Z,76.43
2023-05-15T11:32:52.022Z,75.31
2023-05-15T11:35:43.596Z,76.26
2023-05-15T11:38:11.037Z,70.12
2023-05-15T11:40:47.681Z,69.34
2023-05-15T11:43:28.356Z,71.01
2023-05-15T11:46:04.433Z,72.26
2023-05-15T11:48:41.781Z,72.21
2023-05-15T11:51:25.377Z,73.07
2023-05-15T11:53:56.087Z,74.07
2023-05-15T11:56:30.936Z,76.93
2023-05-15T11:59:01.313Z,78.08
2023-05-15T12:01:44.036Z,79.99
2023-05-15T12:04:19.330Z,79.55
2023-05-15T12:06:49.602Z,78.29
2023-05-15T12:09:19.581Z,75.11
2023-05-15T12:11:53.780Z,78.15
2023-05-15T12:14:31.487Z,78.56
2023-05-15T12:17:04.460Z,72.55
2023-05-15T12:19:34.715Z,74.12
2023-05-15T12:22:06.467Z,75.51
2023-05-15T12:24:39.784Z,79.18
2023-05-15T12:27:09.817Z,72.15
2023-05-15T12:29:41.809Z,69.86
2023-05-15T12:32:10.349Z,68.63
2023-05-15T12:34:38.132Z,73.49
2023-05-15T12:37:05.988Z,72.84
2023-05-15T12:39:33.436Z,71.13
2023-05-15T12:42:01.232Z,69.67
2023-05-15T12:44:29.445Z,70.57
2023-05-15T12:46:57.405Z,70.22
2023-05-15T12:49:24.918Z,71.52
2023-05-15T12:51:52.440Z,69.35
2023-05-15T12:54:20.950Z,71.90
2023-05-15T12:56:49.346Z,71.15
2023-05-15T12:59:16.871Z,71.82
2023-05-15T13:01:45.555Z,72.68
2023-05-15T13:04:12.908Z,73.74
2023-05-15T13:06:46.849Z,71.71
2023-05-15T13:09:22.053Z,74.42
2023-05-15T13:11:50.041Z,75.06
2023-05-15T13:14:22.735Z,75.08
2023-05-15T13:16:50.349Z,74.84
2023-05-15T13:19:17.895Z,74.54
2023-05-15T13:21:46.066Z,74.59
2023-05-15T13:24:13.433Z,77.90
2023-05-15T13:26:41.301Z,73.84
2023-05-15T13:29:08.744Z,71.91
2023-05-15T13:31:36.395Z,72.13
2023-05-15T13:34:03.789Z,70.44
2023-05-15T13:36:31.507Z,66.33
2023-05-15T13:38:58.942Z,66.41
2023-05-15T13:41:26.663Z,65.88
2023-05-15T13:43:54.025Z,64.75
2023-05-15T13:46:21.644Z,65.51
2023-05-15T13:48:49.082Z,64.53
2023-05-15T13:51:16.931Z,63.95
2023-05-15T13:53:44.297Z,62.39
2023-05-15T13:56:12.796Z,62.67
2023-05-15T13:58:41.288Z,63.78
2023-05-15T14:01:08.912Z,62.91
2023-05-15T14:03:36.529Z,63.05
2023-05-15T14:06:04.686Z,64.86
2023-05-15T14:08:31.962Z,63.81
2023-05-15T14:10:59.554Z,62.63
2023-05-15T14:13:26.871Z,62.54
2023-05-15T14:15:55.082Z,63.19
2023-05-15T14:18:22.393Z,65.39
2023-05-15T14:20:50.068Z,63.63
2023-05-15T14:23:17.382Z,66.32
2023-05-15T14:25:45.034Z,66.30
2023-05-15T14:28:13.101Z,64.71
2023-05-15T14:30:40.848Z,64.46
2023-05-15T14:33:08.245Z,63.48
2023-05-15T14:35:36.721Z,64.91
2023-05-15T14:38:04.714Z,62.77
2023-05-15T14:40:32.361Z,62.20
2023-05-15T14:42:59.716Z,61.84
2023-05-15T14:45:27.634Z,62.41
2023-05-15T14:47:55.090Z,61.82
2023-05-15T14:50:22.878Z,62.66
2023-05-15T14:52:50.325Z,62.38
2023-05-15T14:55:23.360Z,61.95
2023-05-15T14:57:50.887Z,62.15
2023-05-15T15:00:18.737Z,61.50
2023-05-15T15:02:46.525Z,63.19
2023-05-15T15:05:14.426Z,65.27
2023-05-15T15:08:11.054Z,65.57
2023-05-15T15:10:40.350Z,64.67
2023-05-15T15:13:10.164Z,65.47
2023-05-15T15:15:37.845Z,64.37
2023-05-15T15:18:06.043Z,62.41
2023-05-15T15:20:33.944Z,59.74
2023-05-15T15:23:05.116Z,59.29
2023-05-15T15:25:33.764Z,59.29
2023-05-15T15:28:02.567Z,59.66
2023-05-15T15:30:31.131Z,59.32
2023-05-15T15:32:59.250Z,58.85
2023-05-15T15:35:26.909Z,56.87
2023-05-15T15:37:55.376Z,57.72
2023-05-15T15:40:23.958Z,57.29
2023-05-15T15:42:51.961Z,57.84
2023-05-15T15:45:19.348Z,57.12
2023-05-15T15:47:47.078Z,58.66
2023-05-15T15:50:14.490Z,58.03
2023-05-15T15:52:42.253Z,58.41
2023-05-15T15:55:10.274Z,59.23
2023-05-15T15:57:38.101Z,58.11
2023-05-15T16:00:08.331Z,59.80
2023-05-15T16:02:36.767Z,59.77
2023-05-15T16:05:04.351Z,60.01
2023-05-15T16:07:32.051Z,60.09
2023-05-15T16:10:11.953Z,61.21
2023-05-15T16:12:42.606Z,62.32
2023-05-15T16:15:21.653Z,63.12
2023-05-15T16:17:54.305Z,62.66
2023-05-15T16:20:23.438Z,64.09
2023-05-15T16:22:56.136Z,64.45
2023-05-15T16:25:23.609Z,64.29
2023-05-15T16:27:51.279Z,65.24
2023-05-15T16:30:18.636Z,66.25
2023-05-15T16:32:46.664Z,66.23
2023-05-15T16:35:14.134Z,66.46
2023-05-15T16:37:41.822Z,65.99
2023-05-15T16:40:09.945Z,65.73
2023-05-15T16:42:38.229Z,65.35
2023-05-15T16:45:07.061Z,65.44
2023-05-15T16:47:37.233Z,67.75
2023-05-15T16:50:08.363Z,67.66
2023-05-15T16:52:36.920Z,67.84
2023-05-15T16:55:04.780Z,68.54
2023-05-15T16:57:32.476Z,69.10
2023-05-15T16:59:59.813Z,69.12
2023-05-15T17:02:27.517Z,70.61
2023-05-15T17:04:55.255Z,70.17
2023-05-15T17:07:22.816Z,69.74
2023-05-15T17:09:50.108Z,70.84
2023-05-15T17:12:17.770Z,71.68
2023-05-15T17:14:44.995Z,70.61
2023-05-15T17:17:12.605Z,70.15
2023-05-15T17:19:39.819Z,70.57
2023-05-15T17:22:07.376Z,72.09
2023-05-15T17:24:49.365Z,72.06
2023-05-15T17:27:19.839Z,71.65
2023-05-15T17:29:48.326Z,71.99
2023-05-15T17:32:16.945Z,72.07
2023-05-15T17:34:45.163Z,72.95
2023-05-15T17:37:14.115Z,72.71
2023-05-15T17:39:41.661Z,71.89
2023-05-15T17:42:09.514Z,73.15
2023-05-15T17:44:36.800Z,72.97
2023-05-15T17:47:04.754Z,73.43
2023-05-15T17:49:34.273Z,73.76
2023-05-15T17:52:02.058Z,74.62
2023-05-15T17:54:29.486Z,76.94
2023-05-15T17:56:57.132Z,76.20
2023-05-15T17:59:24.677Z,75.79
2023-05-15T18:01:53.051Z,75.74
2023-05-15T18:04:20.689Z,76.24
2023-05-15T18:06:48.690Z,76.27
2023-05-15T18:09:16.091Z,76.78
2023-05-15T18:11:43.682Z,76.11
2023-05-15T18:14:11.119Z,76.49
2023-05-15T18:16:39.100Z,77.11
2023-05-15T18:19:07.255Z,77.12
2023-05-15T18:21:37.673Z,77.57
2023-05-15T18:24:05.747Z,76.69
2023-05-15T18:26:33.369Z,76.71
2023-05-15T18:29:00.604Z,77.33
2023-05-15T18:31:28.291Z,78.00
2023-05-15T18:33:55.730Z,79.13
2023-05-15T18:36:23.884Z,79.01
2023-05-15T18:38:51.431Z,78.38
2023-05-15T18:41:19.111Z,77.86
2023-05-15T18:43:46.566Z,77.49
2023-05-15T18:46:14.232Z,78.51
2023-05-15T18:48:41.636Z,77.42
2023-05-15T18:51:10.977Z,77.21
2023-05-15T18:53:38.408Z,78.11
2023-05-15T18:56:06.241Z,77.44
2023-05-15T18:58:33.593Z,76.80
2023-05-15T19:01:01.295Z,77.07
2023-05-15T19:03:28.779Z,76.96
2023-05-15T19:05:57.491Z,76.96
2023-05-15T19:08:25.020Z,76.56
2023-05-15T19:10:53.048Z,77.38
2023-05-15T19:13:20.445Z,77.03
2023-05-15T19:15:52.720Z,76.85
2023-05-15T19:18:20.474Z,76.81
2023-05-15T19:20:52.306Z,76.45
2023-05-15T19:23:20.982Z,76.65
2023-05-15T19:25:48.800Z,76.97
2023-05-15T19:28:16.466Z,77.46
2023-05-15T19:30:44.641Z,79.63
2023-05-15T19:33:13.079Z,78.51
2023-05-15T19:35:40.952Z,78.77
2023-05-15T19:38:08.424Z,79.15
2023-05-15T19:40:36.721Z,80.18
2023-05-15T19:43:04.522Z,80.18
2023-05-15T19:45:33.779Z,80.57
2023-05-15T19:48:01.432Z,81.07
2023-05-15T19:50:29.585Z,83.51
2023-05-15T19:52:57.860Z,83.75
2023-05-15T19:55:25.817Z,83.41
2023-05-15T19:57:56.447Z,86.42
2023-05-15T20:00:24.907Z,85.79
2023-05-15T20:02:53.356Z,86.11
2023-05-15T20:05:21.324Z,86.10
2023-05-15T20:07:48.854Z,86.75
2023-05-15T20:10:18.607Z,87.12
2023-05-15T20:12:46.869Z,87.56
2023-05-15T20:15:15.883Z,87.01
2023-05-15T20:17:43.672Z,87.36
2023-05-15T20:20:12.289Z,87.77
2023-05-15T20:22:42.487Z,90.00
2023-05-15T20:25:11.017Z,89.18
2023-05-15T20:27:38.737Z,88.81
2023-05-15T20:30:07.794Z,89.94
2023-05-15T20:32:36.424Z,89.99
2023-05-15T20:35:04.658Z,90.13
2023-05-15T20:37:32.119Z,89.27
2023-05-15T20:40:00.390Z,88.93
2023-05-15T20:42:28.964Z,89.55
2023-05-15T20:44:56.646Z,89.69
2023-05-15T20:47:24.225Z,90.67
2023-05-15T20:49:52.020Z,90.48
2023-05-15T20:52:20.949Z,90.33
2023-05-15T20:54:48.964Z,89.43
2023-05-15T20:57:16.442Z,89.87
2023-05-15T20:59:44.278Z,90.36
2023-05-15T21:02:11.695Z,90.99
2023-05-15T21:04:39.885Z,90.13
2023-05-15T21:07:07.247Z,89.76
2023-05-15T21:09:35.884Z,90.25
2023-05-15T21:12:04.018Z,91.14
2023-05-15T21:14:32.021Z,91.00
2023-05-15T21:16:59.384Z,89.86
2023-05-15T21:19:27.345Z,90.28
2023-05-15T21:21:54.961Z,89.61
2023-05-15T21:24:23.099Z,89.74
2023-05-15T21:26:50.657Z,90.46
2023-05-15T21:29:18.327Z,89.56
2023-05-15T21:31:45.777Z,91.28
2023-05-15T21:34:13.594Z,91.79
2023-05-15T21:36:41.186Z,90.34
2023-05-15T21:39:09.583Z,91.41
2023-05-15T21:41:37.022Z,90.95
2023-05-15T21:44:04.751Z,92.72
2023-05-15T21:46:32.083Z,91.96
2023-05-15T21:49:01.875Z,91.92
2023-05-15T21:51:29.344Z,92.57
2023-05-15T21:53:57.229Z,92.65
2023-05-15T21:56:24.584Z,93.79
2023-05-15T21:58:53.678Z,92.32
2023-05-15T22:01:21.108Z,94.29
2023-05-15T22:03:49.164Z,95.51
2023-05-15T22:06:16.749Z,94.99
2023-05-15T22:08:44.952Z,95.61
2023-05-15T22:11:12.551Z,95.18
2023-05-15T22:13:40.157Z,95.22
2023-05-15T22:16:07.717Z,94.95
2023-05-15T22:18:35.792Z,94.36
2023-05-15T22:21:03.244Z,93.75
2023-05-15T22:23:31.603Z,93.89
2023-05-15T22:26:00.034Z,94.36
2023-05-15T22:28:27.896Z,94.59
2023-05-15T22:30:55.549Z,94.40
2023-05-15T22:33:24.584Z,93.45
2023-05-15T22:35:52.909Z,94.92
2023-05-15T22:38:21.353Z,96.37
2023-05-15T22:40:52.837Z,95.84
2023-05-15T22:43:22.140Z,96.28
2023-05-15T22:45:49.646Z,94.86
2023-05-15T22:48:17.670Z,95.08
2023-05-15T22:50:45.189Z,94.06
2023-05-15T22:53:12.844Z,93.53
2023-05-15T22:55:40.409Z,94.28
2023-05-15T22:58:08.109Z,93.84
2023-05-15T23:00:35.668Z,94.10
2023-05-15T23:03:03.562Z,95.71
2023-05-15T23:05:31.358Z,94.47
2023-05-15T23:07:59.022Z,95.76
2023-05-15T23:10:26.890Z,94.27
2023-05-15T23:12:55.054Z,94.12
2023-05-15T23:15:22.382Z,94.70
2023-05-15T23:17:50.319Z,93.69
2023-05-15T23:20:18.212Z,93.34
2023-05-15T23:22:45.950Z,93.81
2023-05-15T23:25:13.382Z,93.79
2023-05-15T23:27:41.248Z,93.11
2023-05-15T23:30:09.967Z,94.22
2023-05-15T23:32:37.935Z,94.58
2023-05-15T23:35:05.921Z,95.17
2023-05-15T23:37:33.563Z,95.33
2023-05-15T23:40:00.973Z,95.85
2023-05-15T23:42:30.137Z,94.30
2023-05-15T23:44:57.505Z,95.27
2023-05-15T23:47:25.250Z,95.07
2023-05-15T23:49:52.661Z,96.05
2023-05-15T23:52:20.338Z,96.20
2023-05-15T23:54:47.645Z,96.32
2023-05-15T23:57:15.663Z,96.52
2023-05-15T23:59:43.000Z,97.07
